createdAt,value
2019-01-23T00:02:12.137Z,22.62
2019-01-23T00:04:39.492Z,24.47
2019-01-23T00:07:06.744Z,21.30
2019-01-23T00:09:34.101Z,23.50
2019-01-23T00:12:01.837Z,23.10
2019-01-23T00:14:29.279Z,23.38
2019-01-23T00:16:56.560Z,21.80
2019-01-23T00:19:23.845Z,21.97
2019-01-23T00:21:50.989Z,21.75
2019-01-23T00:24:18.610Z,21.00
2019-01-23T00:26:45.675Z,23.65
2019-01-23T00:29:13.037Z,23.75
2019-01-23T00:31:40.869Z,23.40
2019-01-23T00:34:08.732Z,23.10
2019-01-23T00:36:35.624Z,26.00
2019-01-23T00:39:06.388Z,23.20
2019-01-23T00:41:33.636Z,24.00
2019-01-23T00:44:00.717Z,24.87
2019-01-23T00:46:28.032Z,23.18
2019-01-23T00:48:55.633Z,22.40
2019-01-23T00:51:22.704Z,23.45
2019-01-23T00:53:49.533Z,25.95
2019-01-23T00:56:16.966Z,23.02
2019-01-23T00:58:49.133Z,24.98
2019-01-23T01:01:13.893Z,25.77
2019-01-23T01:03:41.350Z,24.92
2019-01-23T01:06:08.913Z,25.62
2019-01-23T01:08:36.440Z,24.18
2019-01-23T01:11:03.706Z,23.60
2019-01-23T01:13:31.006Z,22.00
2019-01-23T01:15:58.524Z,23.15
2019-01-23T01:18:25.920Z,24.25
2019-01-23T01:20:53.898Z,24.37
2019-01-23T01:23:21.604Z,27.80
2019-01-23T01:25:48.686Z,24.75
2019-01-23T01:28:16.417Z,21.80
2019-01-23T01:30:43.727Z,22.77
2019-01-23T01:33:11.367Z,22.10
2019-01-23T01:35:39.053Z,22.93
2019-01-23T01:38:06.299Z,23.35
2019-01-23T01:40:33.577Z,24.90
2019-01-23T01:43:01.269Z,26.60
2019-01-23T01:45:28.840Z,24.20
2019-01-23T01:47:56.300Z,24.72
2019-01-23T01:50:23.598Z,23.90
2019-01-23T01:52:51.408Z,22.10
2019-01-23T01:55:19.193Z,24.60
2019-01-23T01:57:46.757Z,21.05
2019-01-23T02:00:16.284Z,24.63
2019-01-23T02:02:43.458Z,21.20
2019-01-23T02:05:10.507Z,21.77
2019-01-23T02:07:37.543Z,20.95
2019-01-23T02:10:06.490Z,22.73
2019-01-23T02:12:34.118Z,22.13
2019-01-23T02:15:01.824Z,22.60
2019-01-23T02:17:28.893Z,21.42
2019-01-23T02:19:55.959Z,20.48
2019-01-23T02:22:23.489Z,24.10
2019-01-23T02:24:50.925Z,26.97
2019-01-23T02:27:18.289Z,23.62
2019-01-23T02:29:46.192Z,23.57
2019-01-23T02:32:14.034Z,23.22
2019-01-23T02:34:41.374Z,20.80
2019-01-23T02:37:09.173Z,23.18
2019-01-23T02:39:36.123Z,23.60
2019-01-23T02:42:03.591Z,24.00
2019-01-23T02:44:31.228Z,23.60
2019-01-23T02:46:58.633Z,20.37
2019-01-23T02:49:26.064Z,21.10
2019-01-23T02:51:53.465Z,24.05
2019-01-23T02:54:20.807Z,23.30
2019-01-23T02:56:48.137Z,23.80
2019-01-23T02:59:17.544Z,23.05
2019-01-23T03:01:44.806Z,26.60
2019-01-23T03:04:12.542Z,23.52
2019-01-23T03:06:39.876Z,24.85
2019-01-23T03:09:07.224Z,24.87
2019-01-23T03:11:34.645Z,21.52
2019-01-23T03:14:01.803Z,23.20
2019-01-23T03:16:29.489Z,22.20
2019-01-23T03:18:56.805Z,21.07
2019-01-23T03:21:24.321Z,21.82
2019-01-23T03:23:51.829Z,23.02
2019-01-23T03:26:19.538Z,22.75
2019-01-23T03:28:47.005Z,21.00
2019-01-23T03:31:14.491Z,22.00
2019-01-23T03:33:42.219Z,22.15
2019-01-23T03:36:09.460Z,23.55
2019-01-23T03:38:36.754Z,21.07
2019-01-23T03:41:03.997Z,23.55
2019-01-23T03:43:31.333Z,23.25
2019-01-23T03:45:58.872Z,24.60
2019-01-23T03:48:25.954Z,23.62
2019-01-23T03:50:53.006Z,22.30
2019-01-23T03:53:20.005Z,23.35
2019-01-23T03:55:47.762Z,21.62
2019-01-23T03:58:15.028Z,22.75
2019-01-23T04:00:42.690Z,22.87
2019-01-23T04:03:10.320Z,21.42
2019-01-23T04:05:38.275Z,20.60
2019-01-23T04:08:05.427Z,21.77
2019-01-23T04:10:32.792Z,21.68
2019-01-23T04:12:59.844Z,23.12
2019-01-23T04:15:27.259Z,23.50
2019-01-23T04:17:54.406Z,22.45
2019-01-23T04:20:22.101Z,25.82
2019-01-23T04:22:49.659Z,23.98
2019-01-23T04:25:17.473Z,25.68
2019-01-23T04:27:44.784Z,31.42
2019-01-23T04:30:14.974Z,32.42
2019-01-23T04:32:42.030Z,26.75
2019-01-23T04:35:09.562Z,22.00
2019-01-23T04:37:36.975Z,23.15
2019-01-23T04:40:05.711Z,25.12
2019-01-23T04:42:32.973Z,23.83
2019-01-23T04:45:00.545Z,22.02
2019-01-23T04:47:27.357Z,23.85
2019-01-23T04:49:54.407Z,22.30
2019-01-23T04:52:39.609Z,24.50
2019-01-23T04:55:06.996Z,23.80
2019-01-23T04:57:34.616Z,24.98
2019-01-23T05:00:02.280Z,26.73
2019-01-23T05:02:29.985Z,27.15
2019-01-23T05:04:57.311Z,23.40
2019-01-23T05:07:24.623Z,21.48
2019-01-23T05:09:52.028Z,21.27
2019-01-23T05:12:19.394Z,24.98
2019-01-23T05:14:46.440Z,24.27
2019-01-23T05:17:14.167Z,24.05
2019-01-23T05:19:40.968Z,25.82
2019-01-23T05:22:08.148Z,24.18
2019-01-23T05:24:35.510Z,26.40
2019-01-23T05:27:03.145Z,26.52
2019-01-23T05:29:30.997Z,25.37
2019-01-23T05:31:58.445Z,23.27
2019-01-23T05:34:25.674Z,25.32
2019-01-23T05:36:52.757Z,25.50
2019-01-23T05:39:20.595Z,23.55
2019-01-23T05:41:47.817Z,22.07
2019-01-23T05:44:15.135Z,24.70
2019-01-23T05:46:42.453Z,22.07
2019-01-23T05:49:09.519Z,24.15
2019-01-23T05:51:36.674Z,28.07
2019-01-23T05:54:03.920Z,24.65
2019-01-23T05:56:30.998Z,25.23
2019-01-23T05:58:58.656Z,29.85
2019-01-23T06:01:26.001Z,28.85
2019-01-23T06:03:53.697Z,30.15
2019-01-23T06:06:20.567Z,26.65
2019-01-23T06:08:47.914Z,26.65
2019-01-23T06:11:15.226Z,27.00
2019-01-23T06:13:42.298Z,27.67
2019-01-23T06:16:09.818Z,27.13
2019-01-23T06:18:36.877Z,27.37
2019-01-23T06:21:04.146Z,26.45
2019-01-23T06:23:31.476Z,28.40
2019-01-23T06:25:58.655Z,30.55
2019-01-23T06:28:25.718Z,28.38
2019-01-23T06:30:53.046Z,28.62
2019-01-23T06:33:20.098Z,27.85
2019-01-23T06:35:47.146Z,25.23
2019-01-23T06:38:14.465Z,23.95
2019-01-23T06:40:41.627Z,22.55
2019-01-23T06:43:08.881Z,25.15
2019-01-23T06:45:36.302Z,25.62
2019-01-23T06:48:04.098Z,24.92
2019-01-23T06:50:31.433Z,23.00
2019-01-23T06:52:59.141Z,25.43
2019-01-23T06:55:26.293Z,28.95
2019-01-23T06:57:53.388Z,30.55
2019-01-23T07:00:22.660Z,31.40
2019-01-23T07:02:50.188Z,31.35
2019-01-23T07:05:17.446Z,30.35
2019-01-23T07:07:44.980Z,26.75
2019-01-23T07:10:15.854Z,28.83
2019-01-23T07:12:43.274Z,26.17
2019-01-23T07:15:10.545Z,24.95
2019-01-23T07:17:38.041Z,23.18
2019-01-23T07:20:07.816Z,23.92
2019-01-23T07:22:34.964Z,26.30
2019-01-23T07:25:02.504Z,28.98
2019-01-23T07:27:29.817Z,29.77
2019-01-23T07:29:56.968Z,32.90
2019-01-23T07:32:24.664Z,29.85
2019-01-23T07:34:51.838Z,27.25
2019-01-23T07:37:19.274Z,26.73
2019-01-23T07:39:46.417Z,25.43
2019-01-23T07:42:13.560Z,25.85
2019-01-23T07:44:40.630Z,27.15
2019-01-23T07:47:08.049Z,24.50
2019-01-23T07:49:35.635Z,26.30
2019-01-23T07:52:03.144Z,26.95
2019-01-23T07:54:30.414Z,26.75
2019-01-23T07:56:57.567Z,27.55
2019-01-23T07:59:24.897Z,27.45
2019-01-23T08:01:52.136Z,31.70
2019-01-23T08:04:19.874Z,24.52
2019-01-23T08:06:47.035Z,27.58
2019-01-23T08:09:14.286Z,28.52
2019-01-23T08:11:41.552Z,31.23
2019-01-23T08:14:09.053Z,28.27
2019-01-23T08:16:36.208Z,27.35
2019-01-23T08:19:03.683Z,24.10
2019-01-23T08:21:31.117Z,23.50
2019-01-23T08:23:58.190Z,26.33
2019-01-23T08:26:25.527Z,26.40
2019-01-23T08:28:52.759Z,21.33
2019-01-23T08:31:20.565Z,24.05
2019-01-23T08:33:47.947Z,23.45
2019-01-23T08:36:15.214Z,24.20
2019-01-23T08:38:42.263Z,20.75
2019-01-23T08:41:09.974Z,27.62
2019-01-23T08:43:37.377Z,26.05
2019-01-23T08:46:04.930Z,25.97
2019-01-23T08:48:32.256Z,27.22
2019-01-23T08:50:59.814Z,21.45
2019-01-23T08:53:27.418Z,25.60
2019-01-23T08:55:54.577Z,33.42
2019-01-23T08:58:22.033Z,27.05
2019-01-23T09:00:49.198Z,29.87
2019-01-23T09:03:16.089Z,28.20
2019-01-23T09:05:43.141Z,25.37
2019-01-23T09:08:10.954Z,27.32
2019-01-23T09:10:38.197Z,26.57
2019-01-23T09:13:05.642Z,28.10
2019-01-23T09:15:33.078Z,28.87
2019-01-23T09:18:00.354Z,24.10
2019-01-23T09:20:27.777Z,23.80
2019-01-23T09:22:55.090Z,28.07
2019-01-23T09:25:22.858Z,27.85
2019-01-23T09:27:49.909Z,24.07
2019-01-23T09:30:25.448Z,22.55
2019-01-23T09:33:26.122Z,26.35
2019-01-23T09:36:04.353Z,23.70
2019-01-23T09:38:58.605Z,25.77
2019-01-23T09:42:00.729Z,23.62
2019-01-23T09:45:00.349Z,24.67
2019-01-23T09:47:36.824Z,22.82
2019-01-23T09:50:32.371Z,26.30
2019-01-23T09:53:34.261Z,25.52
2019-01-23T09:56:01.527Z,26.30
2019-01-23T09:58:29.090Z,25.80
2019-01-23T10:00:59.879Z,26.73
2019-01-23T10:03:25.818Z,26.93
2019-01-23T10:05:52.882Z,28.23
2019-01-23T10:08:19.789Z,27.70
2019-01-23T10:10:46.971Z,24.00
2019-01-23T10:13:14.226Z,25.10
2019-01-23T10:15:50.120Z,24.07
2019-01-23T10:18:17.110Z,25.95
2019-01-23T10:20:44.097Z,34.40
2019-01-23T10:23:12.354Z,30.68
2019-01-23T10:25:39.528Z,30.10
2019-01-23T10:28:06.439Z,29.18
2019-01-23T10:30:33.585Z,30.40
2019-01-23T10:33:00.677Z,25.82
2019-01-23T10:35:27.926Z,26.37
2019-01-23T10:37:54.981Z,29.42
2019-01-23T10:40:21.893Z,28.83
2019-01-23T10:42:48.890Z,25.57
2019-01-23T10:45:16.153Z,28.83
2019-01-23T10:47:43.902Z,27.60
2019-01-23T10:50:11.864Z,27.93
2019-01-23T10:52:39.294Z,29.12
2019-01-23T10:55:06.602Z,28.42
2019-01-23T10:57:34.159Z,28.90
2019-01-23T11:00:01.703Z,26.68
2019-01-23T11:02:29.402Z,26.20
2019-01-23T11:04:56.548Z,30.30
2019-01-23T11:07:24.173Z,31.40
2019-01-23T11:09:51.353Z,26.85
2019-01-23T11:12:18.797Z,28.85
2019-01-23T11:14:46.245Z,26.12
2019-01-23T11:17:13.434Z,26.80
2019-01-23T11:19:41.199Z,28.20
2019-01-23T11:22:08.713Z,27.45
2019-01-23T11:24:36.002Z,27.22
2019-01-23T11:27:03.555Z,27.95
2019-01-23T11:29:30.861Z,29.12
2019-01-23T11:31:58.102Z,28.83
2019-01-23T11:34:25.528Z,30.77
2019-01-23T11:36:52.564Z,28.73
2019-01-23T11:39:20.394Z,25.45
2019-01-23T11:41:47.222Z,25.52
2019-01-23T11:44:14.556Z,25.60
2019-01-23T11:46:41.572Z,27.65
2019-01-23T11:49:08.583Z,26.05
2019-01-23T11:51:35.757Z,26.50
2019-01-23T11:54:03.288Z,27.32
2019-01-23T11:56:30.574Z,27.93
2019-01-23T11:58:57.873Z,28.98
2019-01-23T12:01:27.590Z,27.02
2019-01-23T12:03:54.374Z,25.43
2019-01-23T12:06:21.894Z,27.00
2019-01-23T12:08:49.437Z,28.25
2019-01-23T12:11:16.976Z,27.17
2019-01-23T12:13:44.553Z,25.40
2019-01-23T12:16:11.800Z,25.97
2019-01-23T12:18:39.024Z,23.65
2019-01-23T12:21:06.173Z,23.22
2019-01-23T12:23:33.694Z,25.60
2019-01-23T12:26:01.327Z,26.65
2019-01-23T12:28:28.881Z,23.67
2019-01-23T12:30:56.306Z,23.73
2019-01-23T12:33:23.749Z,26.45
2019-01-23T12:35:51.272Z,23.67
2019-01-23T12:38:18.606Z,24.55
2019-01-23T12:40:46.199Z,24.00
2019-01-23T12:43:13.576Z,23.15
2019-01-23T12:45:41.152Z,24.85
2019-01-23T12:48:08.487Z,25.40
2019-01-23T12:50:36.020Z,24.85
2019-01-23T12:53:03.854Z,23.87
2019-01-23T12:55:31.288Z,23.42
2019-01-23T12:57:58.725Z,25.95
2019-01-23T13:00:27.783Z,22.85
2019-01-23T13:02:55.040Z,24.87
2019-01-23T13:05:22.388Z,22.65
2019-01-23T13:07:50.205Z,27.93
2019-01-23T13:10:18.356Z,26.70
2019-01-23T13:12:45.370Z,29.60
2019-01-23T13:15:14.580Z,28.07
2019-01-23T13:17:41.877Z,24.40
2019-01-23T13:20:11.372Z,24.63
2019-01-23T13:22:39.811Z,25.68
2019-01-23T13:25:10.078Z,25.88
2019-01-23T13:27:37.598Z,23.52
2019-01-23T13:30:06.965Z,24.47
2019-01-23T13:32:34.234Z,29.57
2019-01-23T13:35:01.653Z,29.75
2019-01-23T13:37:29.006Z,27.85
2019-01-23T13:39:56.418Z,26.35
2019-01-23T13:42:23.833Z,22.87
2019-01-23T13:44:51.289Z,23.38
2019-01-23T13:47:18.355Z,25.00
2019-01-23T13:49:45.672Z,24.15
2019-01-23T13:52:13.268Z,25.65
2019-01-23T13:54:40.833Z,25.97
2019-01-23T13:57:08.618Z,28.62
2019-01-23T13:59:35.966Z,27.80
2019-01-23T14:02:03.254Z,23.20
2019-01-23T14:04:30.861Z,25.30
2019-01-23T14:06:58.364Z,24.10
2019-01-23T14:09:26.046Z,23.22
2019-01-23T14:11:53.578Z,24.23
2019-01-23T14:14:20.912Z,26.30
2019-01-23T14:16:48.354Z,23.30
2019-01-23T14:19:15.413Z,24.37
2019-01-23T14:21:43.126Z,23.75
2019-01-23T14:24:10.393Z,22.40
2019-01-23T14:26:37.842Z,23.27
2019-01-23T14:29:05.017Z,22.73
2019-01-23T14:31:32.085Z,22.55
2019-01-23T14:33:59.438Z,21.87
2019-01-23T14:36:26.730Z,23.35
2019-01-23T14:38:53.633Z,20.75
2019-01-23T14:41:20.972Z,22.35
2019-01-23T14:43:48.009Z,22.87
2019-01-23T14:46:15.070Z,22.45
2019-01-23T14:48:42.648Z,24.27
2019-01-23T14:51:10.182Z,23.45
2019-01-23T14:53:37.600Z,22.70
2019-01-23T14:56:05.278Z,22.15
2019-01-23T14:58:32.582Z,22.55
2019-01-23T15:00:59.781Z,22.25
2019-01-23T15:03:26.934Z,23.67
2019-01-23T15:05:54.330Z,24.57
2019-01-23T15:08:22.094Z,26.60
2019-01-23T15:10:49.244Z,26.90
2019-01-23T15:13:16.825Z,24.72
2019-01-23T15:15:44.517Z,24.37
2019-01-23T15:18:12.274Z,25.30
2019-01-23T15:20:40.069Z,24.77
2019-01-23T15:23:07.232Z,24.80
2019-01-23T15:25:34.774Z,24.72
2019-01-23T15:28:02.084Z,22.15
2019-01-23T15:30:29.474Z,22.67
2019-01-23T15:32:56.893Z,23.10
2019-01-23T15:35:24.549Z,22.40
2019-01-23T15:37:52.343Z,21.17
2019-01-23T15:40:22.096Z,23.27
2019-01-23T15:42:49.749Z,22.67
2019-01-23T15:45:16.768Z,22.13
2019-01-23T15:47:44.582Z,26.25
2019-01-23T15:50:14.623Z,24.32
2019-01-23T15:52:41.845Z,24.70
2019-01-23T15:55:11.057Z,23.92
2019-01-23T15:57:37.967Z,24.47
2019-01-23T16:00:09.058Z,23.73
2019-01-23T16:02:36.580Z,29.85
2019-01-23T16:05:04.406Z,27.17
2019-01-23T16:07:31.222Z,23.30
2019-01-23T16:09:58.555Z,22.55
2019-01-23T16:12:25.452Z,21.68
2019-01-23T16:14:53.076Z,22.17
2019-01-23T16:17:20.238Z,23.22
2019-01-23T16:19:47.047Z,21.70
2019-01-23T16:22:14.530Z,24.18
2019-01-23T16:24:41.848Z,21.97
2019-01-23T16:27:09.568Z,21.48
2019-01-23T16:29:36.887Z,22.00
2019-01-23T16:32:04.493Z,23.20
2019-01-23T16:34:31.814Z,23.85
2019-01-23T16:36:59.865Z,23.45
2019-01-23T16:39:27.331Z,22.42
2019-01-23T16:42:02.051Z,23.83
2019-01-23T16:44:29.164Z,22.55
2019-01-23T16:46:56.337Z,24.32
2019-01-23T16:49:24.229Z,24.72
2019-01-23T16:51:51.638Z,20.97
2019-01-23T16:54:19.089Z,26.37
2019-01-23T16:56:47.017Z,22.35
2019-01-23T16:59:14.812Z,21.40
2019-01-23T17:01:42.409Z,21.73
2019-01-23T17:04:09.789Z,22.50
2019-01-23T17:06:37.314Z,21.45
2019-01-23T17:09:07.090Z,23.40
2019-01-23T17:11:34.517Z,23.12
2019-01-23T17:14:02.300Z,23.67
2019-01-23T17:16:29.713Z,26.02
2019-01-23T17:18:56.770Z,26.10
2019-01-23T17:21:24.399Z,27.98
2019-01-23T17:23:51.745Z,25.95
2019-01-23T17:26:19.018Z,25.23
2019-01-23T17:28:46.829Z,26.35
2019-01-23T17:31:14.551Z,25.37
2019-01-23T17:33:41.726Z,24.05
2019-01-23T17:36:09.210Z,24.07
2019-01-23T17:38:36.381Z,24.95
2019-01-23T17:41:03.856Z,26.35
2019-01-23T17:43:31.926Z,26.35
2019-01-23T17:45:59.118Z,28.92
2019-01-23T17:48:28.403Z,27.35
2019-01-23T17:50:55.629Z,26.05
2019-01-23T17:53:22.967Z,26.25
2019-01-23T17:55:50.556Z,28.52
2019-01-23T17:58:18.153Z,25.32
2019-01-23T18:00:53.237Z,27.32
2019-01-23T18:03:20.534Z,31.40
2019-01-23T18:05:51.188Z,27.50
2019-01-23T18:08:17.086Z,28.17
2019-01-23T18:10:44.366Z,29.82
2019-01-23T18:13:11.355Z,27.13
2019-01-23T18:15:38.207Z,30.50
2019-01-23T18:18:06.290Z,27.20
2019-01-23T18:20:34.298Z,27.48
2019-01-23T18:23:01.759Z,29.10
2019-01-23T18:25:28.809Z,26.55
2019-01-23T18:27:56.089Z,28.73
2019-01-23T18:30:29.128Z,27.40
2019-01-23T18:33:00.276Z,27.07
2019-01-23T18:36:08.658Z,26.82
2019-01-23T18:38:56.914Z,26.62
2019-01-23T18:42:11.041Z,27.65
2019-01-23T18:45:01.533Z,28.10
2019-01-23T18:47:48.266Z,27.30
2019-01-23T18:51:05.045Z,27.93
2019-01-23T18:53:31.957Z,27.15
2019-01-23T18:55:59.594Z,32.75
2019-01-23T18:58:27.230Z,27.95
2019-01-23T19:00:54.156Z,26.93
2019-01-23T19:03:20.969Z,27.95
2019-01-23T19:05:48.002Z,36.53
2019-01-23T19:08:15.340Z,31.68
2019-01-23T19:10:42.843Z,52.00
2019-01-23T19:13:09.869Z,41.63
2019-01-23T19:15:37.002Z,33.65
2019-01-23T19:18:04.151Z,28.75
2019-01-23T19:20:31.494Z,26.80
2019-01-23T19:22:58.607Z,29.23
2019-01-23T19:25:25.786Z,30.60
2019-01-23T19:27:52.826Z,27.60
2019-01-23T19:30:20.730Z,27.37
2019-01-23T19:32:47.922Z,32.30
2019-01-23T19:35:15.079Z,29.52
2019-01-23T19:37:42.104Z,29.87
2019-01-23T19:40:10.044Z,34.18
2019-01-23T19:42:36.991Z,30.75
2019-01-23T19:45:06.452Z,30.68
2019-01-23T19:47:34.261Z,30.17
2019-01-23T19:50:01.350Z,30.72
2019-01-23T19:52:28.271Z,33.00
2019-01-23T19:54:55.589Z,30.57
2019-01-23T19:57:22.753Z,35.45
2019-01-23T19:59:49.567Z,29.80
2019-01-23T20:02:16.387Z,34.23
2019-01-23T20:04:43.380Z,32.35
2019-01-23T20:07:10.706Z,27.95
2019-01-23T20:09:37.894Z,34.98
2019-01-23T20:12:05.174Z,32.48
2019-01-23T20:14:32.397Z,30.70
2019-01-23T20:16:59.763Z,25.43
2019-01-23T20:19:26.942Z,28.67
2019-01-23T20:21:54.335Z,29.67
2019-01-23T20:24:21.629Z,40.58
2019-01-23T20:26:48.829Z,34.63
2019-01-23T20:29:16.191Z,35.85
2019-01-23T20:31:46.124Z,33.50
2019-01-23T20:34:13.054Z,36.33
2019-01-23T20:36:40.137Z,45.50
2019-01-23T20:39:08.931Z,44.50
2019-01-23T20:41:36.089Z,37.80
2019-01-23T20:44:03.718Z,37.90
2019-01-23T20:46:30.785Z,38.15
2019-01-23T20:48:58.064Z,55.92
2019-01-23T20:51:24.973Z,31.82
2019-01-23T20:53:52.038Z,29.60
2019-01-23T20:56:18.937Z,32.45
2019-01-23T20:58:45.926Z,36.60
2019-01-23T21:01:12.833Z,28.77
2019-01-23T21:03:40.055Z,31.02
2019-01-23T21:06:07.320Z,28.20
2019-01-23T21:08:34.522Z,31.30
2019-01-23T21:11:01.438Z,29.85
2019-01-23T21:13:28.883Z,29.12
2019-01-23T21:15:55.947Z,28.47
2019-01-23T21:18:23.008Z,31.23
2019-01-23T21:20:50.057Z,28.25
2019-01-23T21:23:17.277Z,33.28
2019-01-23T21:25:44.610Z,42.60
2019-01-23T21:28:12.177Z,30.00
2019-01-23T21:30:39.118Z,30.35
2019-01-23T21:33:06.440Z,33.60
2019-01-23T21:35:33.968Z,34.38
2019-01-23T21:38:00.978Z,30.30
2019-01-23T21:40:30.187Z,26.17
2019-01-23T21:42:57.450Z,26.15
2019-01-23T21:45:25.898Z,29.52
2019-01-23T21:47:52.988Z,38.17
2019-01-23T21:50:22.601Z,32.78
2019-01-23T21:52:49.794Z,32.88
2019-01-23T21:55:18.782Z,30.65
2019-01-23T21:57:46.142Z,33.92
2019-01-23T22:00:16.754Z,35.28
2019-01-23T22:02:44.011Z,33.42
2019-01-23T22:05:11.403Z,34.10
2019-01-23T22:07:38.663Z,33.60
2019-01-23T22:10:06.671Z,30.43
2019-01-23T22:12:33.599Z,29.40
2019-01-23T22:15:00.793Z,31.10
2019-01-23T22:17:28.181Z,29.75
2019-01-23T22:19:55.384Z,31.55
2019-01-23T22:22:22.551Z,29.32
2019-01-23T22:24:49.414Z,27.32
2019-01-23T22:27:16.493Z,30.55
2019-01-23T22:29:43.566Z,29.35
2019-01-23T22:32:10.573Z,33.13
2019-01-23T22:34:37.429Z,28.80
2019-01-23T22:37:05.060Z,37.83
2019-01-23T22:39:32.306Z,29.40
2019-01-23T22:41:59.394Z,28.20
2019-01-23T22:44:26.204Z,36.90
2019-01-23T22:46:53.624Z,29.77
2019-01-23T22:49:20.500Z,28.07
2019-01-23T22:51:47.327Z,32.42
2019-01-23T22:54:14.138Z,29.00
2019-01-23T22:56:41.526Z,25.65
2019-01-23T22:59:08.448Z,25.72
2019-01-23T23:01:35.483Z,29.20
2019-01-23T23:04:03.385Z,33.23
2019-01-23T23:06:30.821Z,30.55
2019-01-23T23:08:57.990Z,31.17
2019-01-23T23:11:25.099Z,29.32
2019-01-23T23:13:52.004Z,26.73
2019-01-23T23:16:18.925Z,28.25
2019-01-23T23:18:46.034Z,37.38
2019-01-23T23:21:13.227Z,30.85
2019-01-23T23:23:40.233Z,30.00
2019-01-23T23:26:07.538Z,28.47
2019-01-23T23:28:34.550Z,25.30
2019-01-23T23:31:01.884Z,30.30
2019-01-23T23:33:29.126Z,31.15
2019-01-23T23:35:56.202Z,32.03
2019-01-23T23:38:23.132Z,34.88
2019-01-23T23:40:49.942Z,36.83
2019-01-23T23:43:17.118Z,30.37
2019-01-23T23:45:43.919Z,28.80
2019-01-23T23:48:10.925Z,30.00
2019-01-23T23:50:38.084Z,32.38
2019-01-23T23:53:05.504Z,40.45
2019-01-23T23:55:32.413Z,35.58
2019-01-23T23:57:59.229Z,32.90
